sensor_id;sensor_type;location;lat;lon;timestamp;pressure;altitude;pressure_sealevel;temperature;humidity
12793;BME280;6460;42.684;23.260;2022-12-24T00:02:21;94461.13;;;4.25;100.00
12793;BME280;6460;42.684;23.260;2022-12-24T00:04:49;94467.75;;;4.02;100.00
12793;BME280;6460;42.684;23.260;2022-12-24T00:07:16;94474.41;;;4.43;100.00
12793;BME280;6460;42.684;23.260;2022-12-24T00:09:43;94475.25;;;4.17;100.00
12793;BME280;6460;42.684;23.260;2022-12-24T00:12:10;94468.34;;;4.25;100.00
12793;BME280;6460;42.684;23.260;2022-12-24T00:14:37;94465.63;;;4.42;100.00
12793;BME280;6460;42.684;23.260;2022-12-24T00:17:04;94466.31;;;4.22;100.00
12793;BME280;6460;42.684;23.260;2022-12-24T00:19:30;94471.75;;;4.34;100.00
12793;BME280;6460;42.684;23.260;2022-12-24T00:21:59;94472.53;;;4.35;100.00
12793;BME280;6460;42.684;23.260;2022-12-24T00:24:26;94473.66;;;4.34;100.00
12793;BME280;6460;42.684;23.260;2022-12-24T00:26:52;94471.66;;;4.13;100.00
12793;BME280;6460;42.684;23.260;2022-12-24T00:29:19;94472.03;;;4.41;100.00
12793;BME280;6460;42.684;23.260;2022-12-24T00:31:46;94464.34;;;4.48;100.00
12793;BME280;6460;42.684;23.260;2022-12-24T00:34:13;94468.13;;;3.92;100.00
12793;BME280;6460;42.684;23.260;2022-12-24T00:36:40;94453.84;;;4.05;100.00
12793;BME280;6460;42.684;23.260;2022-12-24T00:39:08;94465.84;;;4.20;100.00
12793;BME280;6460;42.684;23.260;2022-12-24T00:41:35;94468.78;;;4.36;100.00
12793;BME280;6460;42.684;23.260;2022-12-24T00:44:04;94465.72;;;4.16;100.00
12793;BME280;6460;42.684;23.260;2022-12-24T00:46:33;94465.19;;;4.40;100.00
12793;BME280;6460;42.684;23.260;2022-12-24T00:49:00;94466.06;;;4.44;100.00
12793;BME280;6460;42.684;23.260;2022-12-24T00:51:27;94470.16;;;4.42;100.00
12793;BME280;6460;42.684;23.260;2022-12-24T00:53:54;94470.50;;;4.32;100.00
12793;BME280;6460;42.684;23.260;2022-12-24T00:56:23;94472.19;;;4.45;100.00
12793;BME280;6460;42.684;23.260;2022-12-24T00:58:50;94471.53;;;4.48;100.00
12793;BME280;6460;42.684;23.260;2022-12-24T01:01:18;94471.97;;;4.20;100.00
12793;BME280;6460;42.684;23.260;2022-12-24T01:03:45;94470.22;;;4.24;100.00
12793;BME280;6460;42.684;23.260;2022-12-24T01:06:13;94474.28;;;4.31;100.00
12793;BME280;6460;42.684;23.260;2022-12-24T01:08:40;94478.34;;;4.37;100.00
12793;BME280;6460;42.684;23.260;2022-12-24T01:11:08;94482.91;;;4.28;100.00
12793;BME280;6460;42.684;23.260;2022-12-24T01:13:37;94491.41;;;3.87;100.00
12793;BME280;6460;42.684;23.260;2022-12-24T01:16:13;94489.25;;;3.46;100.00
12793;BME280;6460;42.684;23.260;2022-12-24T01:18:40;94484.38;;;3.05;100.00
12793;BME280;6460;42.684;23.260;2022-12-24T01:21:07;94480.63;;;3.57;100.00
12793;BME280;6460;42.684;23.260;2022-12-24T01:23:34;94470.16;;;3.27;100.00
12793;BME280;6460;42.684;23.260;2022-12-24T01:26:02;94470.63;;;3.54;100.00
12793;BME280;6460;42.684;23.260;2022-12-24T01:28:30;94465.94;;;3.77;100.00
12793;BME280;6460;42.684;23.260;2022-12-24T01:30:58;94469.53;;;3.64;100.00
12793;BME280;6460;42.684;23.260;2022-12-24T01:33:27;94469.22;;;3.91;100.00
12793;BME280;6460;42.684;23.260;2022-12-24T01:35:54;94468.41;;;3.91;100.00
12793;BME280;6460;42.684;23.260;2022-12-24T01:38:21;94474.09;;;3.38;100.00
12793;BME280;6460;42.684;23.260;2022-12-24T01:40:47;94478.16;;;3.52;100.00
12793;BME280;6460;42.684;23.260;2022-12-24T01:43:32;94484.38;;;3.73;100.00
12793;BME280;6460;42.684;23.260;2022-12-24T01:46:01;94467.50;;;3.61;100.00
12793;BME280;6460;42.684;23.260;2022-12-24T01:48:34;94461.56;;;3.72;100.00
12793;BME280;6460;42.684;23.260;2022-12-24T01:51:06;94457.06;;;3.73;100.00
12793;BME280;6460;42.684;23.260;2022-12-24T01:53:36;94468.13;;;3.75;100.00
12793;BME280;6460;42.684;23.260;2022-12-24T01:56:05;94476.75;;;3.72;100.00
12793;BME280;6460;42.684;23.260;2022-12-24T01:58:34;94471.28;;;3.43;100.00
12793;BME280;6460;42.684;23.260;2022-12-24T02:01:03;94464.84;;;3.78;100.00
12793;BME280;6460;42.684;23.260;2022-12-24T02:03:30;94461.22;;;3.91;100.00
12793;BME280;6460;42.684;23.260;2022-12-24T02:05:58;94455.47;;;3.89;100.00
12793;BME280;6460;42.684;23.260;2022-12-24T02:08:25;94456.09;;;3.69;100.00
12793;BME280;6460;42.684;23.260;2022-12-24T02:11:11;94456.25;;;3.64;100.00
12793;BME280;6460;42.684;23.260;2022-12-24T02:13:39;94456.75;;;3.49;100.00
12793;BME280;6460;42.684;23.260;2022-12-24T02:16:16;94462.69;;;3.63;100.00
12793;BME280;6460;42.684;23.260;2022-12-24T02:18:53;94461.75;;;3.59;100.00
12793;BME280;6460;42.684;23.260;2022-12-24T02:24:25;94467.81;;;3.16;100.00
12793;BME280;6460;42.684;23.260;2022-12-24T02:27:07;94473.91;;;3.51;100.00
12793;BME280;6460;42.684;23.260;2022-12-24T02:30:03;94472.34;;;3.42;100.00
12793;BME280;6460;42.684;23.260;2022-12-24T02:32:35;94471.56;;;3.33;100.00
12793;BME280;6460;42.684;23.260;2022-12-24T02:35:11;94466.13;;;3.20;100.00
12793;BME280;6460;42.684;23.260;2022-12-24T02:37:43;94463.78;;;3.36;100.00
12793;BME280;6460;42.684;23.260;2022-12-24T02:40:15;94462.03;;;3.57;100.00
12793;BME280;6460;42.684;23.260;2022-12-24T02:42:47;94465.31;;;3.71;100.00
12793;BME280;6460;42.684;23.260;2022-12-24T02:45:20;94462.50;;;3.77;100.00
12793;BME280;6460;42.684;23.260;2022-12-24T02:47:49;94444.66;;;3.77;100.00
12793;BME280;6460;42.684;23.260;2022-12-24T02:50:18;94443.75;;;3.82;100.00
12793;BME280;6460;42.684;23.260;2022-12-24T02:52:45;94449.41;;;3.63;100.00
12793;BME280;6460;42.684;23.260;2022-12-24T02:55:16;94436.41;;;3.70;100.00
12793;BME280;6460;42.684;23.260;2022-12-24T02:57:57;94427.50;;;3.66;100.00
12793;BME280;6460;42.684;23.260;2022-12-24T03:00:34;94442.34;;;3.67;100.00
12793;BME280;6460;42.684;23.260;2022-12-24T03:03:18;94438.44;;;3.73;100.00
12793;BME280;6460;42.684;23.260;2022-12-24T03:05:51;94435.78;;;3.73;100.00
12793;BME280;6460;42.684;23.260;2022-12-24T03:08:29;94435.97;;;3.59;100.00
12793;BME280;6460;42.684;23.260;2022-12-24T03:11:01;94437.03;;;3.67;100.00
12793;BME280;6460;42.684;23.260;2022-12-24T03:13:31;94441.84;;;3.73;100.00
12793;BME280;6460;42.684;23.260;2022-12-24T03:15:59;94444.69;;;3.51;100.00
12793;BME280;6460;42.684;23.260;2022-12-24T03:18:29;94444.72;;;3.60;100.00
12793;BME280;6460;42.684;23.260;2022-12-24T03:21:01;94439.41;;;3.60;100.00
12793;BME280;6460;42.684;23.260;2022-12-24T03:23:32;94442.22;;;3.46;100.00
12793;BME280;6460;42.684;23.260;2022-12-24T03:26:01;94436.56;;;3.65;100.00
12793;BME280;6460;42.684;23.260;2022-12-24T03:28:31;94441.44;;;3.29;100.00
12793;BME280;6460;42.684;23.260;2022-12-24T03:31:02;94439.25;;;3.31;100.00
12793;BME280;6460;42.684;23.260;2022-12-24T03:33:30;94436.56;;;3.48;100.00
12793;BME280;6460;42.684;23.260;2022-12-24T03:35:57;94437.19;;;3.45;100.00
12793;BME280;6460;42.684;23.260;2022-12-24T03:38:24;94438.78;;;3.63;100.00
12793;BME280;6460;42.684;23.260;2022-12-24T03:40:51;94443.31;;;3.54;100.00
12793;BME280;6460;42.684;23.260;2022-12-24T03:43:18;94451.44;;;3.49;100.00
12793;BME280;6460;42.684;23.260;2022-12-24T03:45:45;94448.00;;;3.40;100.00
12793;BME280;6460;42.684;23.260;2022-12-24T03:48:13;94445.19;;;3.36;100.00
12793;BME280;6460;42.684;23.260;2022-12-24T03:50:40;94456.75;;;3.49;100.00
12793;BME280;6460;42.684;23.260;2022-12-24T03:53:07;94443.16;;;3.59;100.00
12793;BME280;6460;42.684;23.260;2022-12-24T03:55:33;94450.81;;;3.60;100.00
12793;BME280;6460;42.684;23.260;2022-12-24T03:58:00;94449.84;;;3.65;100.00
12793;BME280;6460;42.684;23.260;2022-12-24T04:00:27;94449.72;;;3.53;100.00
12793;BME280;6460;42.684;23.260;2022-12-24T04:02:54;94456.88;;;3.61;100.00
12793;BME280;6460;42.684;23.260;2022-12-24T04:05:22;94467.06;;;3.59;100.00
12793;BME280;6460;42.684;23.260;2022-12-24T04:07:49;94470.97;;;3.53;100.00
12793;BME280;6460;42.684;23.260;2022-12-24T04:10:16;94474.88;;;3.55;100.00
12793;BME280;6460;42.684;23.260;2022-12-24T04:12:43;94476.13;;;3.41;100.00
12793;BME280;6460;42.684;23.260;2022-12-24T04:15:10;94480.31;;;3.16;100.00
12793;BME280;6460;42.684;23.260;2022-12-24T04:17:37;94469.69;;;2.99;100.00
12793;BME280;6460;42.684;23.260;2022-12-24T04:20:05;94473.13;;;3.16;100.00
12793;BME280;6460;42.684;23.260;2022-12-24T04:22:33;94470.13;;;2.92;100.00
12793;BME280;6460;42.684;23.260;2022-12-24T04:25:00;94481.44;;;2.58;100.00
12793;BME280;6460;42.684;23.260;2022-12-24T04:27:27;94484.81;;;2.98;100.00
12793;BME280;6460;42.684;23.260;2022-12-24T04:29:55;94482.47;;;2.97;100.00
12793;BME280;6460;42.684;23.260;2022-12-24T04:32:22;94493.44;;;3.12;100.00
12793;BME280;6460;42.684;23.260;2022-12-24T04:34:50;94491.38;;;2.92;100.00
12793;BME280;6460;42.684;23.260;2022-12-24T04:37:17;94493.44;;;3.12;100.00
12793;BME280;6460;42.684;23.260;2022-12-24T04:39:45;94495.78;;;3.05;100.00
12793;BME280;6460;42.684;23.260;2022-12-24T04:42:12;94492.50;;;3.08;100.00
12793;BME280;6460;42.684;23.260;2022-12-24T04:44:39;94500.66;;;2.73;100.00
12793;BME280;6460;42.684;23.260;2022-12-24T04:47:05;94485.63;;;3.07;100.00
12793;BME280;6460;42.684;23.260;2022-12-24T04:49:32;94482.81;;;3.21;100.00
12793;BME280;6460;42.684;23.260;2022-12-24T04:51:59;94487.06;;;3.22;100.00
12793;BME280;6460;42.684;23.260;2022-12-24T04:54:26;94485.78;;;3.02;100.00
12793;BME280;6460;42.684;23.260;2022-12-24T04:56:54;94483.63;;;3.22;100.00
12793;BME280;6460;42.684;23.260;2022-12-24T04:59:21;94475.97;;;3.37;100.00
12793;BME280;6460;42.684;23.260;2022-12-24T05:01:48;94475.94;;;3.11;100.00
12793;BME280;6460;42.684;23.260;2022-12-24T05:04:15;94464.94;;;2.87;100.00
12793;BME280;6460;42.684;23.260;2022-12-24T05:06:42;94461.09;;;3.10;100.00
12793;BME280;6460;42.684;23.260;2022-12-24T05:09:09;94472.50;;;3.11;100.00
12793;BME280;6460;42.684;23.260;2022-12-24T05:11:36;94468.59;;;3.08;100.00
12793;BME280;6460;42.684;23.260;2022-12-24T05:14:04;94458.44;;;3.10;100.00
12793;BME280;6460;42.684;23.260;2022-12-24T05:16:31;94451.44;;;3.14;100.00
12793;BME280;6460;42.684;23.260;2022-12-24T05:18:57;94450.13;;;2.86;100.00
12793;BME280;6460;42.684;23.260;2022-12-24T05:21:25;94450.00;;;3.08;100.00
12793;BME280;6460;42.684;23.260;2022-12-24T05:23:52;94454.53;;;3.16;100.00
12793;BME280;6460;42.684;23.260;2022-12-24T05:26:38;94457.94;;;2.74;100.00
12793;BME280;6460;42.684;23.260;2022-12-24T05:29:08;94466.56;;;3.05;100.00
12793;BME280;6460;42.684;23.260;2022-12-24T05:31:36;94473.41;;;2.81;100.00
12793;BME280;6460;42.684;23.260;2022-12-24T05:34:04;94477.44;;;2.78;100.00
12793;BME280;6460;42.684;23.260;2022-12-24T05:36:31;94476.50;;;2.83;100.00
12793;BME280;6460;42.684;23.260;2022-12-24T05:38:59;94470.13;;;2.84;100.00
12793;BME280;6460;42.684;23.260;2022-12-24T05:41:26;94469.53;;;3.04;100.00
12793;BME280;6460;42.684;23.260;2022-12-24T05:43:53;94466.34;;;2.76;100.00
12793;BME280;6460;42.684;23.260;2022-12-24T05:46:22;94460.25;;;2.84;100.00
12793;BME280;6460;42.684;23.260;2022-12-24T05:48:50;94456.53;;;2.94;100.00
12793;BME280;6460;42.684;23.260;2022-12-24T05:51:19;94454.53;;;3.16;100.00
12793;BME280;6460;42.684;23.260;2022-12-24T05:53:48;94444.56;;;3.31;100.00
12793;BME280;6460;42.684;23.260;2022-12-24T05:56:17;94456.41;;;3.16;100.00
12793;BME280;6460;42.684;23.260;2022-12-24T05:58:44;94459.88;;;3.25;100.00
12793;BME280;6460;42.684;23.260;2022-12-24T06:01:13;94460.50;;;3.31;100.00
12793;BME280;6460;42.684;23.260;2022-12-24T06:03:41;94463.31;;;3.43;100.00
12793;BME280;6460;42.684;23.260;2022-12-24T06:06:09;94466.75;;;3.52;100.00
12793;BME280;6460;42.684;23.260;2022-12-24T06:08:38;94470.97;;;3.53;100.00
12793;BME280;6460;42.684;23.260;2022-12-24T06:11:07;94472.38;;;3.59;100.00
12793;BME280;6460;42.684;23.260;2022-12-24T06:13:34;94477.06;;;3.62;100.00
12793;BME280;6460;42.684;23.260;2022-12-24T06:16:03;94477.22;;;3.57;100.00
12793;BME280;6460;42.684;23.260;2022-12-24T06:18:32;94484.25;;;3.70;100.00
12793;BME280;6460;42.684;23.260;2022-12-24T06:21:02;94475.16;;;3.71;100.00
12793;BME280;6460;42.684;23.260;2022-12-24T06:23:31;94476.56;;;3.77;100.00
12793;BME280;6460;42.684;23.260;2022-12-24T06:25:59;94482.38;;;3.79;100.00
12793;BME280;6460;42.684;23.260;2022-12-24T06:28:27;94478.59;;;3.80;100.00
12793;BME280;6460;42.684;23.260;2022-12-24T06:30:54;94479.84;;;3.91;100.00
12793;BME280;6460;42.684;23.260;2022-12-24T06:33:21;94486.09;;;3.95;100.00
12793;BME280;6460;42.684;23.260;2022-12-24T06:35:48;94484.06;;;3.92;100.00
12793;BME280;6460;42.684;23.260;2022-12-24T06:38:16;94489.53;;;4.04;100.00
12793;BME280;6460;42.684;23.260;2022-12-24T06:40:44;94492.94;;;4.13;100.00
12793;BME280;6460;42.684;23.260;2022-12-24T06:43:12;94498.09;;;4.10;100.00
12793;BME280;6460;42.684;23.260;2022-12-24T06:45:43;94498.06;;;4.18;100.00
12793;BME280;6460;42.684;23.260;2022-12-24T06:48:11;94494.78;;;4.21;100.00
12793;BME280;6460;42.684;23.260;2022-12-24T06:50:39;94495.72;;;4.25;100.00
12793;BME280;6460;42.684;23.260;2022-12-24T06:53:07;94499.34;;;4.21;100.00
12793;BME280;6460;42.684;23.260;2022-12-24T06:55:35;94496.03;;;4.33;100.00
12793;BME280;6460;42.684;23.260;2022-12-24T06:58:03;94498.31;;;4.51;100.00
12793;BME280;6460;42.684;23.260;2022-12-24T07:00:30;94490.78;;;4.53;100.00
12793;BME280;6460;42.684;23.260;2022-12-24T07:02:57;94489.72;;;4.46;100.00
12793;BME280;6460;42.684;23.260;2022-12-24T07:05:28;94503.22;;;4.70;100.00
12793;BME280;6460;42.684;23.260;2022-12-24T07:07:56;94497.91;;;4.78;100.00
12793;BME280;6460;42.684;23.260;2022-12-24T07:10:23;94500.38;;;4.84;100.00
12793;BME280;6460;42.684;23.260;2022-12-24T07:12:52;94509.94;;;4.76;100.00
12793;BME280;6460;42.684;23.260;2022-12-24T07:15:19;94501.53;;;4.95;100.00
12793;BME280;6460;42.684;23.260;2022-12-24T07:17:46;94505.19;;;4.90;100.00
12793;BME280;6460;42.684;23.260;2022-12-24T07:20:13;94508.78;;;4.94;100.00
12793;BME280;6460;42.684;23.260;2022-12-24T07:22:40;94499.50;;;5.00;100.00
12793;BME280;6460;42.684;23.260;2022-12-24T07:25:08;94500.13;;;4.68;100.00
12793;BME280;6460;42.684;23.260;2022-12-24T07:27:35;94506.78;;;4.82;100.00
12793;BME280;6460;42.684;23.260;2022-12-24T07:30:05;94498.56;;;4.96;100.00
12793;BME280;6460;42.684;23.260;2022-12-24T07:32:32;94513.19;;;4.90;100.00
12793;BME280;6460;42.684;23.260;2022-12-24T07:34:59;94507.31;;;5.05;100.00
12793;BME280;6460;42.684;23.260;2022-12-24T07:37:26;94511.34;;;5.11;100.00
12793;BME280;6460;42.684;23.260;2022-12-24T07:39:53;94512.91;;;5.12;100.00
12793;BME280;6460;42.684;23.260;2022-12-24T07:42:21;94518.50;;;5.19;100.00
12793;BME280;6460;42.684;23.260;2022-12-24T07:44:48;94509.53;;;5.24;100.00
12793;BME280;6460;42.684;23.260;2022-12-24T07:47:16;94514.34;;;5.30;100.00
12793;BME280;6460;42.684;23.260;2022-12-24T07:49:43;94513.19;;;5.40;100.00
12793;BME280;6460;42.684;23.260;2022-12-24T07:52:10;94520.88;;;5.42;100.00
12793;BME280;6460;42.684;23.260;2022-12-24T07:54:38;94520.22;;;5.45;100.00
12793;BME280;6460;42.684;23.260;2022-12-24T07:57:05;94522.38;;;5.51;100.00
12793;BME280;6460;42.684;23.260;2022-12-24T07:59:32;94524.06;;;5.56;100.00
12793;BME280;6460;42.684;23.260;2022-12-24T08:01:59;94525.69;;;5.69;100.00
12793;BME280;6460;42.684;23.260;2022-12-24T08:04:29;94533.66;;;5.77;100.00
12793;BME280;6460;42.684;23.260;2022-12-24T08:06:56;94534.66;;;5.85;100.00
12793;BME280;6460;42.684;23.260;2022-12-24T08:09:24;94541.09;;;5.93;100.00
12793;BME280;6460;42.684;23.260;2022-12-24T08:11:51;94540.56;;;5.99;100.00
12793;BME280;6460;42.684;23.260;2022-12-24T08:14:17;94547.13;;;6.02;100.00
12793;BME280;6460;42.684;23.260;2022-12-24T08:16:44;94541.13;;;6.05;100.00
12793;BME280;6460;42.684;23.260;2022-12-24T08:22:31;94534.81;;;6.09;100.00
12793;BME280;6460;42.684;23.260;2022-12-24T08:24:58;94533.06;;;6.25;100.00
12793;BME280;6460;42.684;23.260;2022-12-24T08:27:25;94531.53;;;6.24;100.00
12793;BME280;6460;42.684;23.260;2022-12-24T08:29:51;94530.22;;;6.30;100.00
12793;BME280;6460;42.684;23.260;2022-12-24T08:32:18;94522.81;;;6.48;100.00
12793;BME280;6460;42.684;23.260;2022-12-24T08:34:45;94517.03;;;6.46;100.00
12793;BME280;6460;42.684;23.260;2022-12-24T08:37:12;94521.81;;;6.53;100.00
12793;BME280;6460;42.684;23.260;2022-12-24T08:39:41;94511.69;;;6.46;100.00
12793;BME280;6460;42.684;23.260;2022-12-24T08:42:09;94527.16;;;6.41;100.00
12793;BME280;6460;42.684;23.260;2022-12-24T08:44:36;94527.16;;;6.53;100.00
12793;BME280;6460;42.684;23.260;2022-12-24T08:47:04;94522.84;;;6.60;100.00
12793;BME280;6460;42.684;23.260;2022-12-24T08:49:30;94533.59;;;6.39;100.00
12793;BME280;6460;42.684;23.260;2022-12-24T08:51:58;94542.69;;;6.38;100.00
12793;BME280;6460;42.684;23.260;2022-12-24T09:05:19;94535.66;;;6.01;100.00
12793;BME280;6460;42.684;23.260;2022-12-24T09:08:02;94529.44;;;6.30;100.00
12793;BME280;6460;42.684;23.260;2022-12-24T09:10:50;94523.31;;;6.29;100.00
12793;BME280;6460;42.684;23.260;2022-12-24T09:13:20;94518.63;;;6.71;100.00
12793;BME280;6460;42.684;23.260;2022-12-24T09:15:58;94525.88;;;6.83;100.00
12793;BME280;6460;42.684;23.260;2022-12-24T09:18:25;94527.00;;;6.82;100.00
12793;BME280;6460;42.684;23.260;2022-12-24T09:20:59;94516.31;;;6.94;100.00
12793;BME280;6460;42.684;23.260;2022-12-24T09:23:29;94506.72;;;7.05;100.00
12793;BME280;6460;42.684;23.260;2022-12-24T09:26:05;94510.53;;;7.16;100.00
12793;BME280;6460;42.684;23.260;2022-12-24T09:28:46;94509.19;;;7.22;100.00
12793;BME280;6460;42.684;23.260;2022-12-24T09:48:47;94489.88;;;7.65;100.00
12793;BME280;6460;42.684;23.260;2022-12-24T09:51:22;94496.13;;;7.85;100.00
12793;BME280;6460;42.684;23.260;2022-12-24T09:53:54;94501.59;;;7.88;100.00
12793;BME280;6460;42.684;23.260;2022-12-24T09:56:25;94502.19;;;8.10;100.00
12793;BME280;6460;42.684;23.260;2022-12-24T09:58:56;94494.41;;;8.05;100.00
12793;BME280;6460;42.684;23.260;2022-12-24T10:01:24;94491.06;;;8.35;100.00
12793;BME280;6460;42.684;23.260;2022-12-24T10:03:53;94497.63;;;8.38;100.00
12793;BME280;6460;42.684;23.260;2022-12-24T10:06:23;94507.50;;;8.49;100.00
12793;BME280;6460;42.684;23.260;2022-12-24T10:09:02;94506.81;;;8.52;100.00
12793;BME280;6460;42.684;23.260;2022-12-24T10:11:42;94507.66;;;8.41;100.00
12793;BME280;6460;42.684;23.260;2022-12-24T10:14:22;94502.00;;;8.30;100.00
12793;BME280;6460;42.684;23.260;2022-12-24T10:16:58;94491.75;;;8.20;100.00
12793;BME280;6460;42.684;23.260;2022-12-24T10:19:40;94486.25;;;8.13;100.00
12793;BME280;6460;42.684;23.260;2022-12-24T10:22:18;94490.88;;;8.01;100.00
12793;BME280;6460;42.684;23.260;2022-12-24T10:24:54;94500.03;;;8.15;100.00
12793;BME280;6460;42.684;23.260;2022-12-24T10:27:25;94490.22;;;8.63;100.00
12793;BME280;6460;42.684;23.260;2022-12-24T10:29:58;94496.88;;;8.69;100.00
12793;BME280;6460;42.684;23.260;2022-12-24T10:32:31;94491.59;;;9.35;100.00
12793;BME280;6460;42.684;23.260;2022-12-24T10:35:05;94499.97;;;9.33;100.00
12793;BME280;6460;42.684;23.260;2022-12-24T10:37:36;94480.88;;;10.46;100.00
12793;BME280;6460;42.684;23.260;2022-12-24T10:40:04;94471.53;;;10.40;100.00
12793;BME280;6460;42.684;23.260;2022-12-24T10:42:37;94483.56;;;9.89;100.00
12793;BME280;6460;42.684;23.260;2022-12-24T10:45:13;94479.94;;;9.81;100.00
12793;BME280;6460;42.684;23.260;2022-12-24T10:47:43;94472.28;;;10.83;100.00
12793;BME280;6460;42.684;23.260;2022-12-24T10:50:17;94470.16;;;11.44;100.00
12793;BME280;6460;42.684;23.260;2022-12-24T10:52:48;94477.53;;;11.74;100.00
12793;BME280;6460;42.684;23.260;2022-12-24T10:55:22;94472.75;;;11.63;100.00
12793;BME280;6460;42.684;23.260;2022-12-24T10:58:04;94459.50;;;12.41;100.00
12793;BME280;6460;42.684;23.260;2022-12-24T11:00:33;94471.22;;;13.03;100.00
12793;BME280;6460;42.684;23.260;2022-12-24T11:03:22;94479.34;;;12.29;71.87
12793;BME280;6460;42.684;23.260;2022-12-24T11:06:19;94484.25;;;11.60;74.11
12793;BME280;6460;42.684;23.260;2022-12-24T11:08:49;94487.28;;;11.33;79.49
12793;BME280;6460;42.684;23.260;2022-12-24T11:11:24;94479.53;;;11.54;85.16
12793;BME280;6460;42.684;23.260;2022-12-24T11:13:54;94473.00;;;11.81;84.36
12793;BME280;6460;42.684;23.260;2022-12-24T11:16:26;94461.44;;;11.77;78.49
12793;BME280;6460;42.684;23.260;2022-12-24T11:18:58;94464.28;;;12.21;82.79
12793;BME280;6460;42.684;23.260;2022-12-24T11:21:28;94472.25;;;12.88;80.18
12793;BME280;6460;42.684;23.260;2022-12-24T11:23:58;94472.47;;;12.68;71.06
12793;BME280;6460;42.684;23.260;2022-12-24T11:26:28;94471.69;;;11.98;69.70
12793;BME280;6460;42.684;23.260;2022-12-24T11:29:13;94476.38;;;11.48;71.98
12793;BME280;6460;42.684;23.260;2022-12-24T11:31:43;94485.13;;;11.42;75.52
12793;BME280;6460;42.684;23.260;2022-12-24T11:34:24;94485.47;;;11.40;73.73
12793;BME280;6460;42.684;23.260;2022-12-24T11:36:56;94484.81;;;11.47;73.58
12793;BME280;6460;42.684;23.260;2022-12-24T11:39:38;94471.19;;;11.62;73.27
12793;BME280;6460;42.684;23.260;2022-12-24T11:42:06;94471.91;;;11.59;72.74
12793;BME280;6460;42.684;23.260;2022-12-24T11:44:33;94474.38;;;11.42;73.30
12793;BME280;6460;42.684;23.260;2022-12-24T11:47:00;94471.19;;;11.36;73.59
12793;BME280;6460;42.684;23.260;2022-12-24T11:49:29;94467.59;;;11.25;74.22
12793;BME280;6460;42.684;23.260;2022-12-24T11:52:21;94470.91;;;10.92;75.07
12793;BME280;6460;42.684;23.260;2022-12-24T11:55:15;94474.19;;;11.05;75.44
12793;BME280;6460;42.684;23.260;2022-12-24T11:57:49;94458.69;;;10.98;75.92
12793;BME280;6460;42.684;23.260;2022-12-24T12:00:17;94458.03;;;11.05;76.16
12793;BME280;6460;42.684;23.260;2022-12-24T12:02:47;94452.78;;;11.12;76.35
12793;BME280;6460;42.684;23.260;2022-12-24T12:05:17;94444.09;;;11.48;76.39
12793;BME280;6460;42.684;23.260;2022-12-24T12:07:49;94442.88;;;11.72;74.97
12793;BME280;6460;42.684;23.260;2022-12-24T12:10:22;94443.13;;;11.90;75.13
12793;BME280;6460;42.684;23.260;2022-12-24T12:12:56;94445.53;;;11.98;73.66
12793;BME280;6460;42.684;23.260;2022-12-24T12:15:28;94446.91;;;12.55;74.30
12793;BME280;6460;42.684;23.260;2022-12-24T12:18:04;94448.50;;;12.60;71.24
12793;BME280;6460;42.684;23.260;2022-12-24T12:20:37;94458.78;;;12.47;71.73
12793;BME280;6460;42.684;23.260;2022-12-24T12:23:12;94454.06;;;12.37;72.74
12793;BME280;6460;42.684;23.260;2022-12-24T12:25:44;94460.16;;;12.31;72.42
12793;BME280;6460;42.684;23.260;2022-12-24T12:28:19;94456.59;;;12.23;73.05
12793;BME280;6460;42.684;23.260;2022-12-24T12:30:53;94454.63;;;12.20;73.22
12793;BME280;6460;42.684;23.260;2022-12-24T12:33:24;94441.91;;;12.17;73.42
12793;BME280;6460;42.684;23.260;2022-12-24T12:35:54;94446.09;;;12.14;73.87
12793;BME280;6460;42.684;23.260;2022-12-24T12:38:25;94447.41;;;12.28;73.44
12793;BME280;6460;42.684;23.260;2022-12-24T12:43:57;94443.81;;;12.16;74.21
12793;BME280;6460;42.684;23.260;2022-12-24T12:46:38;94438.81;;;12.15;74.35
12793;BME280;6460;42.684;23.260;2022-12-24T12:49:18;94455.22;;;12.06;75.01
12793;BME280;6460;42.684;23.260;2022-12-24T12:51:56;94455.56;;;12.01;75.42
12793;BME280;6460;42.684;23.260;2022-12-24T12:54:40;94466.19;;;11.91;75.63
12793;BME280;6460;42.684;23.260;2022-12-24T12:57:13;94464.91;;;11.51;76.79
12793;BME280;6460;42.684;23.260;2022-12-24T12:59:47;94468.94;;;11.68;75.56
12793;BME280;6460;42.684;23.260;2022-12-24T13:02:29;94472.59;;;11.53;75.82
12793;BME280;6460;42.684;23.260;2022-12-24T13:05:27;94471.72;;;11.45;76.60
12793;BME280;6460;42.684;23.260;2022-12-24T13:11:08;94473.81;;;11.29;77.47
12793;BME280;6460;42.684;23.260;2022-12-24T13:16:47;94492.31;;;11.34;76.67
12793;BME280;6460;42.684;23.260;2022-12-24T13:19:33;94484.28;;;10.89;78.09
12793;BME280;6460;42.684;23.260;2022-12-24T13:22:12;94485.00;;;10.86;79.41
12793;BME280;6460;42.684;23.260;2022-12-24T13:24:39;94489.38;;;10.71;80.10
12793;BME280;6460;42.684;23.260;2022-12-24T13:27:17;94493.81;;;10.63;81.37
12793;BME280;6460;42.684;23.260;2022-12-24T13:29:51;94500.22;;;10.55;82.03
12793;BME280;6460;42.684;23.260;2022-12-24T13:32:50;94499.91;;;10.19;84.66
12793;BME280;6460;42.684;23.260;2022-12-24T13:35:29;94495.34;;;10.42;84.84
12793;BME280;6460;42.684;23.260;2022-12-24T13:44:28;94506.44;;;10.40;86.19
12793;BME280;6460;42.684;23.260;2022-12-24T13:47:16;94505.38;;;10.45;85.87
12793;BME280;6460;42.684;23.260;2022-12-24T13:49:48;94519.25;;;10.47;86.24
12793;BME280;6460;42.684;23.260;2022-12-24T13:52:20;94525.13;;;10.33;86.92
12793;BME280;6460;42.684;23.260;2022-12-24T13:55:21;94534.88;;;10.22;87.21
12793;BME280;6460;42.684;23.260;2022-12-24T13:57:55;94519.03;;;9.98;89.29
12793;BME280;6460;42.684;23.260;2022-12-24T14:00:50;94514.63;;;10.09;89.45
12793;BME280;6460;42.684;23.260;2022-12-24T14:03:23;94521.75;;;9.82;90.88
12793;BME280;6460;42.684;23.260;2022-12-24T14:05:54;94515.34;;;10.06;90.10
12793;BME280;6460;42.684;23.260;2022-12-24T14:08:41;94525.16;;;9.64;92.62
12793;BME280;6460;42.684;23.260;2022-12-24T14:11:13;94527.88;;;9.83;100.00